Time;durP1;ratioP1;P1;durP2;ratioP2;P2;SDS_P1;SDS_P2;PMS_P1;PMS_P2;Temp;Humidity;BMP_temperature;BMP_pressure;BME280_temperature;BME280_humidity;BME280_pressure;Samples;Min_cycle;Max_cycle;Signal;HPM_P1;HPM_P2
2021/12/17 00:00:57;;;;;;;20.80;8.57;;;9.10;96.60;;;;;;2066839;28;20540;-91
2021/12/17 00:04:14;;;;;;;20.85;8.73;;;9.00;96.60;;;;;;2081516;28;20022;-91
2021/12/17 00:05:17;;;;;;;20.48;8.60;;;9.10;96.60;;;;;;2081525;28;20034;-91
2021/12/17 00:07:26;;;;;;;17.55;8.15;;;9.10;96.60;;;;;;2087084;28;20029;-87
2021/12/17 00:08:27;;;;;;;19.10;8.73;;;9.10;96.60;;;;;;2085787;28;20079;-88
2021/12/17 00:09:28;;;;;;;19.98;8.65;;;9.10;96.60;;;;;;2070092;28;20126;-88
2021/12/17 00:10:28;;;;;;;22.75;10.00;;;9.10;96.60;;;;;;2078989;28;20041;-88
2021/12/17 00:11:29;;;;;;;20.92;9.20;;;9.10;96.60;;;;;;2078379;28;20029;-88
2021/12/17 00:12:30;;;;;;;22.58;9.05;;;9.10;96.60;;;;;;2078897;28;20037;-87
2021/12/17 00:13:31;;;;;;;20.80;8.70;;;9.10;96.60;;;;;;2078000;28;20026;-90
2021/12/17 00:14:37;;;;;;;22.92;10.30;;;9.10;96.60;;;;;;2078484;28;20037;-88
2021/12/17 00:15:38;;;;;;;20.73;9.02;;;9.10;96.60;;;;;;2089754;28;20029;-91
2021/12/17 00:16:41;;;;;;;22.40;9.15;;;9.10;96.60;;;;;;2089263;28;20029;-90
2021/12/17 00:17:51;;;;;;;21.48;9.15;;;9.10;96.60;;;;;;2073820;28;20018;-90
2021/12/17 00:19:09;;;;;;;22.30;8.63;;;9.10;96.60;;;;;;2076168;28;20097;-91
2021/12/17 00:50:18;;;;;;;23.65;9.02;;;8.90;96.50;;;;;;2079290;28;20049;-91
2021/12/17 00:52:49;;;;;;;17.92;7.70;;;8.90;96.50;;;;;;2056274;28;20042;-91
2021/12/17 00:53:51;;;;;;;18.90;7.88;;;8.90;96.50;;;;;;2083043;28;20083;-92
2021/12/17 00:54:51;;;;;;;21.58;9.48;;;8.90;96.60;;;;;;2074844;28;20093;-92
2021/12/17 00:55:52;;;;;;;23.40;9.07;;;8.90;96.60;;;;;;2074825;28;20137;-91
2021/12/17 00:56:55;;;;;;;21.70;9.30;;;8.90;96.60;;;;;;2082287;28;20022;-90
2021/12/17 00:57:55;;;;;;;23.27;9.13;;;8.90;96.60;;;;;;2084047;28;20029;-92
2021/12/17 00:58:56;;;;;;;20.80;8.45;;;8.90;96.60;;;;;;2067628;28;20125;-92
2021/12/17 00:59:57;;;;;;;22.40;9.10;;;8.90;96.60;;;;;;2071344;28;20037;-91
2021/12/17 01:00:58;;;;;;;21.83;8.82;;;8.90;96.60;;;;;;2075434;28;20505;-91
2021/12/17 01:02:02;;;;;;;21.17;8.38;;;9.00;96.60;;;;;;2074505;28;20037;-91
2021/12/17 01:03:03;;;;;;;20.95;8.38;;;8.90;96.60;;;;;;2076445;28;20071;-92
2021/12/17 01:04:06;;;;;;;23.85;9.93;;;9.00;96.60;;;;;;2081677;28;20440;-91
2021/12/17 01:05:10;;;;;;;22.77;9.50;;;8.90;96.60;;;;;;2084552;28;20116;-91
2021/12/17 01:06:11;;;;;;;23.42;9.18;;;8.90;96.60;;;;;;2081822;28;20099;-91
2021/12/17 01:07:13;;;;;;;22.55;9.50;;;8.90;96.90;;;;;;2083444;28;20053;-92
2021/12/17 01:08:14;;;;;;;22.75;9.60;;;9.00;96.70;;;;;;2084258;28;20121;-92
2021/12/17 01:09:17;;;;;;;25.73;9.80;;;9.00;96.60;;;;;;2084036;28;20036;-91
2021/12/17 01:10:29;;;;;;;25.70;10.15;;;9.00;96.70;;;;;;2075730;28;20038;-91
2021/12/17 01:11:29;;;;;;;26.45;9.88;;;9.00;96.70;;;;;;2077487;28;20026;-92
2021/12/17 01:12:30;;;;;;;23.27;9.32;;;9.00;96.60;;;;;;2083676;28;20037;-91
2021/12/17 01:13:31;;;;;;;26.92;10.40;;;9.00;96.60;;;;;;2075508;28;20033;-91
2021/12/17 01:14:33;;;;;;;26.02;10.15;;;9.00;96.60;;;;;;2083450;28;20037;-91
2021/12/17 01:15:36;;;;;;;25.83;9.95;;;9.00;96.60;;;;;;2083865;28;20033;-91
2021/12/17 01:16:37;;;;;;;23.00;9.40;;;9.00;96.60;;;;;;2073083;28;20532;-92
2021/12/17 01:17:41;;;;;;;29.17;9.77;;;9.00;96.60;;;;;;2075501;28;20034;-91
2021/12/17 01:18:59;;;;;;;26.92;10.05;;;9.00;96.70;;;;;;2084337;28;20033;-92
2021/12/17 01:21:27;;;;;;;22.40;8.93;;;9.00;96.60;;;;;;2079081;28;20057;-91
2021/12/17 01:24:09;;;;;;;21.65;8.77;;;9.00;96.60;;;;;;2067250;28;20762;-91
2021/12/17 01:25:20;;;;;;;22.23;9.15;;;9.00;96.60;;;;;;2073397;28;20413;-91
2021/12/17 01:35:37;;;;;;;20.45;8.10;;;8.90;96.60;;;;;;2082722;28;20031;-91
2021/12/17 01:36:38;;;;;;;19.75;8.38;;;8.90;96.60;;;;;;2077325;28;20093;-90
2021/12/17 01:42:45;;;;;;;24.48;8.68;;;8.90;96.60;;;;;;2065555;28;20044;-91
2021/12/17 01:43:48;;;;;;;25.02;9.38;;;8.90;96.60;;;;;;2057215;28;20140;-91
2021/12/17 01:44:49;;;;;;;20.00;8.50;;;8.90;96.50;;;;;;2056681;28;20031;-92
2021/12/17 01:45:50;;;;;;;19.50;8.25;;;8.90;96.60;;;;;;2053371;28;20157;-91
2021/12/17 01:46:53;;;;;;;20.50;8.40;;;8.90;96.60;;;;;;2067011;28;20063;-91
2021/12/17 01:47:54;;;;;;;19.90;8.10;;;8.90;96.60;;;;;;2089653;28;20091;-91
2021/12/17 01:49:17;;;;;;;21.80;8.10;;;8.90;96.60;;;;;;2074902;28;20491;-91
2021/12/17 01:59:41;;;;;;;14.57;6.18;;;8.80;96.70;;;;;;2077131;28;20099;-88
2021/12/17 02:00:43;;;;;;;17.95;6.95;;;8.80;96.70;;;;;;2075677;28;20050;-89
2021/12/17 02:01:44;;;;;;;16.48;6.45;;;8.80;96.70;;;;;;2073137;28;20018;-89
2021/12/17 02:02:51;;;;;;;14.98;6.65;;;8.80;96.70;;;;;;2079746;28;20026;-88
2021/12/17 02:03:52;;;;;;;16.05;6.90;;;8.80;96.70;;;;;;2079791;28;20076;-89
2021/12/17 02:04:53;;;;;;;15.82;6.57;;;8.80;96.60;;;;;;2080820;28;20049;-89
2021/12/17 02:05:54;;;;;;;16.55;6.60;;;8.80;96.70;;;;;;2071951;28;20027;-88
2021/12/17 02:06:54;;;;;;;15.30;6.30;;;8.80;96.70;;;;;;2061840;28;20037;-89
2021/12/17 02:07:57;;;;;;;15.88;6.45;;;8.90;96.70;;;;;;2063855;28;20035;-91
2021/12/17 02:09:00;;;;;;;16.10;6.68;;;8.80;96.70;;;;;;2072718;28;20026;-91
2021/12/17 02:20:41;;;;;;;13.23;5.80;;;8.80;96.60;;;;;;2077232;28;20037;-91
2021/12/17 02:23:22;;;;;;;14.15;5.70;;;8.80;96.60;;;;;;2076264;28;20041;-91
2021/12/17 02:31:18;;;;;;;15.10;6.00;;;8.80;96.60;;;;;;2072051;28;20183;-91
2021/12/17 02:32:19;;;;;;;13.73;5.78;;;8.80;96.60;;;;;;2070948;28;20034;-91
2021/12/17 02:33:20;;;;;;;13.98;6.07;;;8.80;96.60;;;;;;2064805;28;20048;-91
2021/12/17 02:35:44;;;;;;;13.93;6.13;;;8.80;96.60;;;;;;2067854;28;20030;-91
2021/12/17 02:36:46;;;;;;;13.27;5.90;;;8.80;96.60;;;;;;2068131;28;20031;-91
2021/12/17 02:37:49;;;;;;;18.52;7.03;;;8.80;96.60;;;;;;2066653;28;20026;-91
2021/12/17 02:38:50;;;;;;;16.13;6.57;;;8.90;96.70;;;;;;2073396;28;20106;-91
2021/12/17 02:46:08;;;;;;;15.35;6.00;;;8.90;96.60;;;;;;2059650;28;20168;-91
2021/12/17 02:47:09;;;;;;;15.25;6.28;;;8.90;96.60;;;;;;2064047;28;20114;-92
2021/12/17 02:48:12;;;;;;;13.73;6.03;;;8.90;96.60;;;;;;2069249;28;20022;-91
2021/12/17 02:49:13;;;;;;;15.70;6.38;;;8.90;96.60;;;;;;2068444;28;20019;-92
2021/12/17 02:50:14;;;;;;;19.50;7.43;;;8.90;96.60;;;;;;2078794;28;20053;-91
2021/12/17 02:51:14;;;;;;;15.82;6.80;;;8.90;96.60;;;;;;2082295;28;20025;-92
2021/12/17 02:52:16;;;;;;;15.32;6.80;;;8.90;96.60;;;;;;2081995;28;20091;-92
2021/12/17 02:53:19;;;;;;;17.90;6.88;;;8.90;96.60;;;;;;2066707;28;20046;-91
2021/12/17 02:54:20;;;;;;;15.25;6.70;;;8.90;96.60;;;;;;2059597;28;20560;-91
2021/12/17 02:55:21;;;;;;;17.15;6.88;;;8.90;96.60;;;;;;2081797;28;20083;-91
2021/12/17 02:56:22;;;;;;;17.17;7.20;;;8.90;96.60;;;;;;2074614;28;20022;-92
2021/12/17 02:57:24;;;;;;;16.45;7.07;;;8.90;96.60;;;;;;2059221;28;20026;-91
2021/12/17 02:58:27;;;;;;;17.65;7.13;;;8.90;96.60;;;;;;2063752;28;20057;-91
2021/12/17 02:59:31;;;;;;;16.10;6.93;;;8.90;96.70;;;;;;2086050;28;20002;-84
2021/12/17 03:00:34;;;;;;;17.25;7.25;;;8.90;96.60;;;;;;2083581;28;20026;-91
2021/12/17 03:01:34;;;;;;;17.55;7.28;;;8.90;96.60;;;;;;2075861;28;20039;-84
2021/12/17 03:02:38;;;;;;;18.25;7.45;;;8.90;96.60;;;;;;2071148;28;20057;-91
2021/12/17 03:03:40;;;;;;;17.88;7.18;;;8.90;96.60;;;;;;2069266;28;20075;-91
2021/12/17 03:04:41;;;;;;;16.40;7.25;;;8.90;96.60;;;;;;2072804;28;20015;-91
2021/12/17 03:05:42;;;;;;;17.38;7.50;;;8.90;96.90;;;;;;2073927;28;20026;-92
2021/12/17 03:06:44;;;;;;;16.73;6.78;;;8.90;96.70;;;;;;2050758;28;20027;-91
2021/12/17 03:07:47;;;;;;;15.63;6.53;;;8.90;96.70;;;;;;2062460;28;20026;-91
2021/12/17 03:08:48;;;;;;;16.02;6.57;;;8.90;96.70;;;;;;2073007;28;20030;-91
2021/12/17 03:10:06;;;;;;;16.55;7.22;;;8.90;96.70;;;;;;2058946;28;20055;-92
2021/12/17 03:11:07;;;;;;;16.40;6.70;;;8.90;96.70;;;;;;2057741;28;20037;-92
2021/12/17 03:12:17;;;;;;;14.13;6.22;;;8.90;96.70;;;;;;2054418;28;20041;-93
2021/12/17 03:13:20;;;;;;;16.17;7.18;;;8.90;96.70;;;;;;2067262;28;20042;-92
2021/12/17 03:14:21;;;;;;;17.48;7.05;;;8.90;96.70;;;;;;2064748;28;20042;-91
2021/12/17 03:16:34;;;;;;;17.42;7.03;;;8.90;96.70;;;;;;2065355;28;20026;-90
2021/12/17 03:23:41;;;;;;;15.98;6.20;;;8.90;96.70;;;;;;2072072;28;20064;-91
2021/12/17 03:24:41;;;;;;;17.48;7.13;;;8.90;96.70;;;;;;2065604;28;20032;-91
2021/12/17 03:25:42;;;;;;;18.95;7.18;;;8.90;96.70;;;;;;2072942;28;20069;-91
2021/12/17 03:26:43;;;;;;;20.02;6.70;;;8.90;96.70;;;;;;2082157;28;20029;-91
2021/12/17 03:27:43;;;;;;;18.67;7.18;;;8.90;96.90;;;;;;2065022;28;20031;-91
2021/12/17 03:28:49;;;;;;;15.38;6.65;;;8.90;96.70;;;;;;2062228;28;20119;-90
2021/12/17 03:29:50;;;;;;;18.23;6.72;;;8.90;96.70;;;;;;2079405;28;20098;-90
2021/12/17 03:30:51;;;;;;;18.67;7.22;;;8.90;96.70;;;;;;2086422;28;20037;-90
2021/12/17 03:31:52;;;;;;;18.15;7.35;;;8.90;96.70;;;;;;2078251;28;20018;-91
2021/12/17 03:32:53;;;;;;;16.50;6.57;;;8.90;96.70;;;;;;2064532;28;20078;-91
2021/12/17 03:34:12;;;;;;;17.35;7.18;;;8.90;96.70;;;;;;2059558;28;20047;-91
2021/12/17 03:35:12;;;;;;;16.48;6.90;;;8.90;96.70;;;;;;2076714;28;20025;-91
2021/12/17 03:36:15;;;;;;;19.02;7.20;;;8.90;96.70;;;;;;2073979;28;20045;-90
2021/12/17 03:37:15;;;;;;;17.52;6.75;;;8.90;96.80;;;;;;2072626;28;20471;-91
2021/12/17 03:38:16;;;;;;;18.17;7.18;;;8.90;96.70;;;;;;2065492;28;20034;-90
2021/12/17 03:39:17;;;;;;;15.98;7.20;;;8.90;96.70;;;;;;2073929;28;20472;-91
2021/12/17 03:40:19;;;;;;;17.85;6.90;;;8.90;96.70;;;;;;2079056;28;20116;-91
2021/12/17 03:41:24;;;;;;;17.77;7.00;;;8.90;96.70;;;;;;2081872;28;20031;-91
2021/12/17 03:42:25;;;;;;;16.02;7.00;;;8.90;96.70;;;;;;2081465;28;20052;-91
2021/12/17 03:43:30;;;;;;;15.77;6.63;;;8.90;96.70;;;;;;2081521;28;20112;-91
2021/12/17 03:44:32;;;;;;;16.35;7.22;;;8.90;96.70;;;;;;2073050;28;20034;-91
2021/12/17 03:45:33;;;;;;;20.05;7.15;;;8.90;96.70;;;;;;2073107;28;20580;-91
2021/12/17 03:46:34;;;;;;;17.52;6.65;;;8.90;96.70;;;;;;2073415;28;20037;-91
2021/12/17 03:47:34;;;;;;;14.75;6.50;;;8.90;96.70;;;;;;2073575;28;20504;-91
2021/12/17 03:48:38;;;;;;;17.15;6.93;;;8.90;96.70;;;;;;2073182;28;20034;-91
2021/12/17 03:49:40;;;;;;;18.10;7.15;;;8.90;96.70;;;;;;2071753;28;20032;-91
2021/12/17 03:50:41;;;;;;;18.70;7.35;;;8.90;96.70;;;;;;2073393;28;20052;-91
2021/12/17 03:51:52;;;;;;;17.63;7.25;;;8.90;96.70;;;;;;2065641;28;20022;-91
2021/12/17 03:52:53;;;;;;;16.48;6.70;;;8.90;96.80;;;;;;2062794;28;20026;-88
2021/12/17 03:53:56;;;;;;;16.88;6.97;;;8.90;96.80;;;;;;2072791;28;20064;-90
2021/12/17 03:54:58;;;;;;;15.73;6.80;;;8.90;96.80;;;;;;2088009;28;20037;-88
2021/12/17 03:55:58;;;;;;;16.45;6.72;;;8.90;96.80;;;;;;2079021;28;20014;-87
2021/12/17 03:57:00;;;;;;;14.85;6.38;;;8.90;96.80;;;;;;2062636;28;20047;-87
2021/12/17 03:58:01;;;;;;;16.15;6.80;;;8.90;96.80;;;;;;2070334;28;20022;-87
2021/12/17 03:59:02;;;;;;;17.48;7.18;;;8.90;96.80;;;;;;2079637;28;20025;-88
2021/12/17 04:00:08;;;;;;;18.60;7.25;;;8.90;96.80;;;;;;2075530;28;20121;-90
2021/12/17 04:01:09;;;;;;;18.42;7.45;;;8.90;96.80;;;;;;2081355;28;20514;-90
2021/12/17 04:02:10;;;;;;;16.67;6.53;;;8.90;96.80;;;;;;2081280;28;20045;-91
2021/12/17 04:03:11;;;;;;;17.92;6.72;;;8.90;97.00;;;;;;2072209;28;20172;-91
2021/12/17 04:04:12;;;;;;;17.40;7.30;;;8.90;96.70;;;;;;2072922;28;20088;-91
2021/12/17 04:05:12;;;;;;;18.33;6.88;;;8.90;96.70;;;;;;2073184;28;20042;-91
2021/12/17 04:06:13;;;;;;;17.63;7.22;;;8.90;96.70;;;;;;2065369;28;20085;-91
2021/12/17 04:07:14;;;;;;;18.65;7.13;;;8.90;96.70;;;;;;2064756;28;20025;-91
2021/12/17 04:08:14;;;;;;;16.88;6.57;;;8.90;96.70;;;;;;2057080;28;20039;-91
2021/12/17 04:09:19;;;;;;;16.00;6.47;;;8.90;96.70;;;;;;2065835;28;20023;-90
2021/12/17 04:10:22;;;;;;;17.90;6.50;;;8.90;96.70;;;;;;2082271;28;20036;-90
2021/12/17 04:11:23;;;;;;;17.00;7.55;;;9.00;96.70;;;;;;2081835;28;20029;-91
2021/12/17 04:12:37;;;;;;;16.58;6.95;;;8.90;96.70;;;;;;2081978;28;20025;-91
2021/12/17 04:13:38;;;;;;;17.75;7.20;;;8.90;96.70;;;;;;2071474;28;20030;-91
2021/12/17 04:14:45;;;;;;;17.35;7.13;;;8.90;96.70;;;;;;2060844;28;20089;-91
2021/12/17 04:15:53;;;;;;;17.50;6.93;;;8.90;96.70;;;;;;2055662;28;20035;-90
2021/12/17 04:17:01;;;;;;;17.58;6.93;;;8.90;96.70;;;;;;2060203;28;20117;-91
2021/12/17 04:18:07;;;;;;;18.20;7.35;;;8.90;96.70;;;;;;2060572;28;20039;-91
2021/12/17 04:19:08;;;;;;;17.55;6.93;;;8.90;96.70;;;;;;2075906;28;20037;-89
2021/12/17 04:20:09;;;;;;;19.60;7.15;;;8.90;96.70;;;;;;2066337;28;20133;-91
2021/12/17 04:21:14;;;;;;;18.42;7.50;;;8.90;96.70;;;;;;2057442;28;20042;-91
2021/12/17 04:22:14;;;;;;;20.58;7.57;;;8.90;96.70;;;;;;2064986;28;20070;-91
2021/12/17 04:23:15;;;;;;;18.90;6.57;;;8.90;96.70;;;;;;2057712;28;20035;-92
2021/12/17 04:24:16;;;;;;;20.75;7.68;;;8.90;96.90;;;;;;2056835;28;20034;-90
2021/12/17 04:25:17;;;;;;;19.02;7.85;;;8.90;96.70;;;;;;2056923;28;20038;-92
2021/12/17 04:26:18;;;;;;;21.33;7.55;;;8.90;96.70;;;;;;2064503;28;20037;-91
2021/12/17 04:27:19;;;;;;;16.90;7.22;;;8.90;96.70;;;;;;2073446;28;20503;-91
2021/12/17 04:28:20;;;;;;;18.52;7.82;;;8.90;96.70;;;;;;2073701;28;20037;-91
2021/12/17 04:29:22;;;;;;;18.77;8.00;;;8.90;96.70;;;;;;2075487;28;20022;-91
2021/12/17 04:30:24;;;;;;;18.98;7.63;;;8.90;96.70;;;;;;2049884;28;20042;-91
2021/12/17 04:31:27;;;;;;;17.80;7.50;;;8.90;96.70;;;;;;2061863;28;20011;-88
2021/12/17 04:32:27;;;;;;;17.00;7.05;;;8.90;96.70;;;;;;2077182;28;20030;-89
2021/12/17 04:33:28;;;;;;;17.00;7.45;;;8.90;96.70;;;;;;2073736;28;20034;-90
2021/12/17 04:34:28;;;;;;;18.05;8.13;;;8.90;96.70;;;;;;2074390;28;20077;-91
2021/12/17 04:35:29;;;;;;;19.17;7.68;;;8.90;96.70;;;;;;2058428;28;20046;-92
2021/12/17 04:36:33;;;;;;;19.67;8.18;;;8.90;96.70;;;;;;2057095;28;20030;-91
2021/12/17 04:37:34;;;;;;;18.77;7.82;;;8.90;96.70;;;;;;2050296;28;20081;-91
2021/12/17 04:38:35;;;;;;;19.42;7.70;;;8.90;96.70;;;;;;2073841;28;20030;-91
2021/12/17 04:39:36;;;;;;;19.55;7.95;;;8.90;96.70;;;;;;2072913;28;20041;-92
2021/12/17 04:40:39;;;;;;;21.15;7.95;;;8.90;96.70;;;;;;2064830;28;20027;-91
2021/12/17 04:41:47;;;;;;;18.45;7.50;;;8.90;96.70;;;;;;2055590;28;20431;-91
2021/12/17 04:43:40;;;;;;;17.38;7.43;;;8.90;96.70;;;;;;2049924;28;20078;-91
2021/12/17 04:45:12;;;;;;;16.70;6.85;;;8.90;96.70;;;;;;2063253;28;19927;-92
2021/12/17 04:46:27;;;;;;;16.92;7.00;;;8.90;96.70;;;;;;2070133;28;20041;-91
2021/12/17 04:57:48;;;;;;;16.33;6.82;;;8.80;96.80;;;;;;2070381;28;20513;-91
2021/12/17 04:58:48;;;;;;;15.48;6.90;;;8.90;96.60;;;;;;2064465;28;20129;-92
2021/12/17 04:59:49;;;;;;;17.42;6.80;;;8.80;96.60;;;;;;2057106;28;20038;-91
2021/12/17 05:00:50;;;;;;;18.35;7.40;;;8.80;96.60;;;;;;2065089;28;20026;-91
2021/12/17 05:01:51;;;;;;;16.58;6.85;;;8.80;96.70;;;;;;2072279;28;20316;-91
2021/12/17 05:02:55;;;;;;;17.10;6.40;;;8.80;96.70;;;;;;2072660;28;20117;-91
2021/12/17 05:03:56;;;;;;;15.45;6.72;;;8.80;96.70;;;;;;2055355;28;20035;-90
2021/12/17 05:04:56;;;;;;;20.17;7.43;;;8.80;96.70;;;;;;2064596;28;20041;-92
2021/12/17 05:05:57;;;;;;;20.00;6.30;;;8.80;96.70;;;;;;2070220;28;20076;-91
2021/12/17 05:06:58;;;;;;;19.48;7.57;;;8.80;96.70;;;;;;2072995;28;20480;-91
2021/12/17 05:08:03;;;;;;;18.48;7.35;;;8.80;96.80;;;;;;2073065;28;20068;-90
2021/12/17 05:09:11;;;;;;;18.70;7.43;;;8.80;97.00;;;;;;2065637;28;20041;-91
2021/12/17 05:21:25;;;;;;;20.20;6.47;;;8.80;96.70;;;;;;2066692;28;20060;-91
2021/12/17 05:22:28;;;;;;;17.13;5.97;;;8.80;96.70;;;;;;2058386;28;20027;-92
2021/12/17 05:23:33;;;;;;;17.25;6.32;;;8.80;96.70;;;;;;2058559;28;20517;-92
2021/12/17 05:24:33;;;;;;;15.30;6.15;;;8.80;96.80;;;;;;2065721;28;20034;-92
2021/12/17 05:25:34;;;;;;;15.88;6.03;;;8.80;96.80;;;;;;2072223;28;20054;-91
2021/12/17 05:26:35;;;;;;;14.25;6.25;;;8.80;96.80;;;;;;2074103;28;20036;-92
2021/12/17 05:27:35;;;;;;;19.52;6.60;;;8.80;96.80;;;;;;2091503;28;20017;-92
2021/12/17 05:28:36;;;;;;;20.27;6.57;;;8.80;96.80;;;;;;2076189;28;20065;-91
2021/12/17 05:29:37;;;;;;;16.05;6.18;;;8.80;96.80;;;;;;2075323;28;20030;-92
2021/12/17 05:30:45;;;;;;;17.38;6.35;;;8.80;96.80;;;;;;2075140;28;20022;-91
2021/12/17 05:31:45;;;;;;;15.40;6.30;;;8.80;96.80;;;;;;2075814;28;20029;-91
2021/12/17 05:32:46;;;;;;;16.55;6.65;;;8.80;96.80;;;;;;2083289;28;20040;-91
2021/12/17 05:33:48;;;;;;;16.08;6.53;;;8.80;97.10;;;;;;2080295;28;20069;-91
2021/12/17 05:34:48;;;;;;;14.93;6.32;;;8.80;96.80;;;;;;2070319;28;20034;-91
2021/12/17 05:35:49;;;;;;;17.80;6.82;;;8.80;96.80;;;;;;2074096;28;20479;-91
2021/12/17 05:36:50;;;;;;;17.63;6.68;;;8.80;96.80;;;;;;2074319;28;20365;-91
2021/12/17 05:37:51;;;;;;;18.27;6.70;;;8.80;96.80;;;;;;2076245;28;20026;-90
2021/12/17 05:38:52;;;;;;;21.30;7.35;;;8.80;96.80;;;;;;2066247;28;20030;-91
2021/12/17 05:39:53;;;;;;;18.02;6.55;;;8.80;96.80;;;;;;2058334;28;20034;-92
2021/12/17 05:40:55;;;;;;;16.90;6.53;;;8.80;96.80;;;;;;2066636;28;20038;-92
2021/12/17 05:41:56;;;;;;;16.95;6.40;;;8.80;96.80;;;;;;2074520;28;20034;-92
2021/12/17 05:43:00;;;;;;;15.93;6.63;;;8.80;96.80;;;;;;2061318;28;20420;-92
2021/12/17 05:44:00;;;;;;;18.13;6.70;;;8.80;96.80;;;;;;2066942;28;20084;-91
2021/12/17 05:45:08;;;;;;;15.93;5.95;;;8.80;96.80;;;;;;2074571;28;20085;-92
2021/12/17 05:46:12;;;;;;;15.80;6.18;;;8.80;96.80;;;;;;2079249;28;20026;-91
2021/12/17 05:47:12;;;;;;;18.92;6.93;;;8.80;96.80;;;;;;2081907;28;20049;-88
2021/12/17 05:48:15;;;;;;;18.08;6.32;;;8.80;96.80;;;;;;2081666;28;20030;-90
2021/12/17 05:49:27;;;;;;;16.15;6.38;;;8.80;96.80;;;;;;2076837;28;20025;-87
2021/12/17 05:50:28;;;;;;;18.23;6.68;;;8.80;96.80;;;;;;2086651;28;20064;-91
2021/12/17 05:51:28;;;;;;;17.40;6.55;;;8.80;96.80;;;;;;2082555;28;20022;-89
2021/12/17 05:52:29;;;;;;;16.33;6.25;;;8.80;96.80;;;;;;2080287;28;20041;-91
2021/12/17 05:53:30;;;;;;;16.83;6.57;;;8.90;96.90;;;;;;2074634;28;20104;-91
2021/12/17 05:54:30;;;;;;;19.80;7.20;;;8.90;96.90;;;;;;2073740;28;20049;-92
2021/12/17 05:55:32;;;;;;;15.88;6.47;;;8.90;96.80;;;;;;2082086;28;20060;-92
2021/12/17 05:56:32;;;;;;;14.93;6.07;;;8.90;96.80;;;;;;2077520;28;20041;-91
2021/12/17 05:57:33;;;;;;;17.38;6.72;;;8.90;96.80;;;;;;2071809;28;20057;-92
2021/12/17 05:58:34;;;;;;;16.15;7.00;;;8.80;96.80;;;;;;2058651;28;20049;-90
2021/12/17 05:59:35;;;;;;;15.85;6.53;;;8.90;96.80;;;;;;2061268;28;20505;-90
2021/12/17 06:00:38;;;;;;;18.42;6.82;;;8.90;96.80;;;;;;2063536;28;20034;-91
2021/12/17 06:01:39;;;;;;;18.52;6.95;;;8.90;96.80;;;;;;2074583;28;20117;-90
2021/12/17 06:02:40;;;;;;;16.05;6.80;;;8.90;96.80;;;;;;2066001;28;20038;-92
2021/12/17 06:03:40;;;;;;;17.45;7.03;;;8.90;96.80;;;;;;2049984;28;20565;-90
2021/12/17 06:04:41;;;;;;;16.40;6.78;;;8.90;96.80;;;;;;2059696;28;20030;-91
2021/12/17 06:05:42;;;;;;;17.58;6.65;;;8.90;96.80;;;;;;2065424;28;20511;-90
2021/12/17 06:06:46;;;;;;;18.75;7.40;;;8.90;96.80;;;;;;2058599;28;20058;-90
2021/12/17 06:07:46;;;;;;;17.92;7.78;;;8.90;96.80;;;;;;2059481;28;20117;-91
2021/12/17 06:08:47;;;;;;;16.83;6.97;;;8.90;96.80;;;;;;2062532;28;20030;-91
2021/12/17 06:09:48;;;;;;;16.55;7.00;;;8.90;96.80;;;;;;2059939;28;20505;-91
2021/12/17 06:10:49;;;;;;;17.48;7.18;;;8.90;96.80;;;;;;2058159;28;20149;-91
2021/12/17 06:11:49;;;;;;;20.13;7.82;;;8.90;96.80;;;;;;2061220;28;20031;-91
2021/12/17 06:12:50;;;;;;;18.00;7.15;;;8.90;96.80;;;;;;2066318;28;20031;-91
2021/12/17 06:13:51;;;;;;;18.52;7.90;;;8.90;96.80;;;;;;2072321;28;20021;-89
2021/12/17 06:14:51;;;;;;;17.73;7.90;;;8.90;96.80;;;;;;2067888;28;20042;-89
2021/12/17 06:15:52;;;;;;;19.77;7.55;;;8.90;96.80;;;;;;2066172;28;20061;-90
2021/12/17 06:16:53;;;;;;;19.80;7.47;;;8.90;96.80;;;;;;2074419;28;20040;-90
2021/12/17 06:17:54;;;;;;;18.85;7.57;;;8.90;96.80;;;;;;2075084;28;20500;-89
2021/12/17 06:18:55;;;;;;;19.73;8.02;;;8.90;96.80;;;;;;2078122;28;20092;-90
2021/12/17 06:19:55;;;;;;;18.77;8.00;;;8.90;96.80;;;;;;2056488;28;20042;-89
2021/12/17 06:20:56;;;;;;;21.95;8.65;;;8.90;96.80;;;;;;2065576;28;20030;-92
2021/12/17 06:21:58;;;;;;;21.33;8.80;;;8.90;96.80;;;;;;2083105;28;20075;-92
2021/12/17 06:22:59;;;;;;;22.08;8.68;;;8.90;96.80;;;;;;2066824;28;20030;-93
2021/12/17 06:23:59;;;;;;;22.50;8.70;;;8.90;96.80;;;;;;2052388;28;20470;-91
2021/12/17 06:25:00;;;;;;;21.02;8.50;;;8.90;96.80;;;;;;2073927;28;20049;-92
2021/12/17 06:26:01;;;;;;;19.52;8.20;;;9.00;96.80;;;;;;2085671;28;20021;-91
2021/12/17 06:27:02;;;;;;;20.65;8.50;;;9.00;96.80;;;;;;2066167;28;20026;-90
2021/12/17 06:28:03;;;;;;;20.50;8.55;;;8.90;96.70;;;;;;2050481;28;20114;-89
2021/12/17 06:29:03;;;;;;;20.58;8.20;;;8.90;96.70;;;;;;2058703;28;20046;-90
2021/12/17 06:30:07;;;;;;;20.05;7.63;;;8.90;96.70;;;;;;2055659;28;20115;-91
2021/12/17 06:31:08;;;;;;;20.95;7.70;;;8.90;96.70;;;;;;2059038;28;20042;-90
2021/12/17 06:32:09;;;;;;;19.38;7.57;;;8.90;96.70;;;;;;2057703;28;20439;-90
2021/12/17 06:33:10;;;;;;;20.63;7.65;;;8.90;96.70;;;;;;2058112;28;20022;-93
2021/12/17 06:34:11;;;;;;;18.73;8.20;;;9.00;96.70;;;;;;2066082;28;20470;-92
2021/12/17 06:35:12;;;;;;;18.42;7.82;;;9.00;96.70;;;;;;2058264;28;20038;-91
2021/12/17 06:36:12;;;;;;;19.73;8.60;;;8.90;96.70;;;;;;2051650;28;20128;-89
2021/12/17 06:37:17;;;;;;;18.35;7.85;;;8.90;96.70;;;;;;2058453;28;20039;-92
2021/12/17 06:38:17;;;;;;;19.52;8.15;;;8.90;96.70;;;;;;2073859;28;20033;-90
2021/12/17 06:39:18;;;;;;;22.27;8.10;;;8.90;96.70;;;;;;2066149;28;20061;-92
2021/12/17 06:40:18;;;;;;;20.33;7.72;;;9.00;96.70;;;;;;2074376;28;20034;-91
2021/12/17 06:41:19;;;;;;;18.88;7.63;;;8.90;97.00;;;;;;2073408;28;20073;-91
2021/12/17 06:42:20;;;;;;;20.55;7.60;;;8.90;96.70;;;;;;2072255;28;20030;-93
2021/12/17 06:43:30;;;;;;;16.98;7.03;;;8.90;96.70;;;;;;2078123;28;20095;-91
2021/12/17 06:44:31;;;;;;;17.25;7.13;;;8.90;96.70;;;;;;2050932;28;20457;-92
2021/12/17 06:45:52;;;;;;;16.42;7.20;;;8.90;96.70;;;;;;2059929;28;20038;-91
2021/12/17 06:47:05;;;;;;;;;;;8.90;96.80;;;;;;2074943;28;20113;-91
2021/12/17 06:48:06;;;;;;;16.38;6.43;;;8.90;96.70;;;;;;2084711;28;19924;-90
2021/12/17 07:07:18;;;;;;;16.23;7.25;;;8.90;96.70;;;;;;2082767;28;20124;-92
2021/12/17 07:22:50;;;;;;;17.48;7.03;;;8.90;96.70;;;;;;2079897;28;20380;-91
2021/12/17 07:23:24;;;;;;;15.85;6.70;;;8.90;96.70;;;;;;2071391;28;20034;-91
2021/12/17 07:28:03;;;;;;;17.00;6.43;;;8.80;96.70;;;;;;2072150;28;20026;-91
2021/12/17 07:30:02;;;;;;;16.00;6.28;;;8.80;96.70;;;;;;2060046;28;20038;-92
2021/12/17 07:33:14;;;;;;;17.45;7.13;;;8.80;96.70;;;;;;2064872;28;20036;-91
2021/12/17 07:34:16;;;;;;;17.50;6.57;;;8.80;96.70;;;;;;2066542;28;20057;-91
2021/12/17 07:36:22;;;;;;;16.13;7.07;;;8.80;96.70;;;;;;2059998;28;20027;-91
2021/12/17 07:39:35;;;;;;;21.42;7.97;;;8.80;96.80;;;;;;2067028;28;20090;-88
2021/12/17 07:40:37;;;;;;;19.92;7.10;;;8.80;96.80;;;;;;2066292;28;20023;-88
2021/12/17 07:41:39;;;;;;;20.58;7.80;;;8.80;96.80;;;;;;2076858;28;20034;-88
2021/12/17 07:42:39;;;;;;;21.15;7.90;;;8.80;96.80;;;;;;2073809;28;20034;-90
2021/12/17 07:43:51;;;;;;;18.42;7.82;;;8.80;96.80;;;;;;2075643;28;20092;-88
2021/12/17 07:44:51;;;;;;;20.73;7.95;;;8.80;96.80;;;;;;2074674;28;20037;-89
2021/12/17 07:45:53;;;;;;;18.80;7.90;;;8.80;96.80;;;;;;2079036;28;20034;-89
2021/12/17 07:46:54;;;;;;;17.33;7.03;;;8.90;96.80;;;;;;2078958;28;20030;-88
2021/12/17 07:47:55;;;;;;;21.08;8.07;;;8.90;96.80;;;;;;2075445;28;20028;-90
2021/12/17 07:48:56;;;;;;;20.35;7.57;;;8.90;96.80;;;;;;2073003;28;20038;-91
2021/12/17 07:49:56;;;;;;;20.05;7.78;;;8.90;96.80;;;;;;2057412;28;20066;-90
2021/12/17 07:50:58;;;;;;;19.38;7.65;;;8.90;96.80;;;;;;2053552;28;20051;-90
2021/12/17 07:51:59;;;;;;;18.98;7.82;;;8.90;96.80;;;;;;2061764;28;20031;-91
2021/12/17 07:53:00;;;;;;;17.88;7.10;;;8.90;96.80;;;;;;2056364;28;20483;-91
2021/12/17 07:54:00;;;;;;;17.90;7.40;;;8.90;96.80;;;;;;2055045;28;20138;-91
2021/12/17 07:55:01;;;;;;;18.25;7.75;;;8.90;96.80;;;;;;2065942;28;20085;-92
2021/12/17 07:56:04;;;;;;;16.10;6.32;;;8.90;96.80;;;;;;2069540;28;20109;-91
2021/12/17 07:57:05;;;;;;;17.27;6.75;;;8.90;96.80;;;;;;2074214;28;20080;-91
2021/12/17 07:58:06;;;;;;;15.85;6.53;;;8.90;96.80;;;;;;2060908;28;20034;-91
2021/12/17 07:59:08;;;;;;;14.23;6.38;;;8.90;96.80;;;;;;2051180;28;20055;-91
2021/12/17 08:00:10;;;;;;;14.50;6.30;;;8.90;96.80;;;;;;2057650;28;20070;-91
2021/12/17 08:01:11;;;;;;;14.73;6.25;;;8.90;96.80;;;;;;2070528;28;20204;-91
2021/12/17 08:02:12;;;;;;;16.25;6.65;;;8.90;96.80;;;;;;2073242;28;20097;-90
2021/12/17 08:03:14;;;;;;;14.35;6.13;;;8.90;96.80;;;;;;2057073;28;20478;-91
2021/12/17 08:04:15;;;;;;;14.70;6.00;;;8.90;96.80;;;;;;2052312;28;20027;-91
2021/12/17 08:05:17;;;;;;;15.30;5.68;;;8.80;96.80;;;;;;2053770;28;20547;-92
2021/12/17 08:06:18;;;;;;;13.18;5.45;;;8.90;96.80;;;;;;2061750;28;20026;-92